createdAt,value
2022-09-30T00:01:09.912Z,100.00
2022-09-30T00:04:16.115Z,100.00
2022-09-30T00:07:20.303Z,100.00
2022-09-30T00:10:23.357Z,100.00
2022-09-30T00:13:26.576Z,100.00
2022-09-30T00:16:32.859Z,100.00
2022-09-30T00:19:35.892Z,100.00
2022-09-30T00:22:40.124Z,100.00
2022-09-30T00:25:43.105Z,100.00
2022-09-30T00:28:46.601Z,100.00
2022-09-30T00:31:49.558Z,100.00
2022-09-30T00:34:52.473Z,100.00
2022-09-30T00:37:56.688Z,100.00
2022-09-30T00:41:00.030Z,100.00
2022-09-30T00:44:03.186Z,100.00
2022-09-30T00:47:07.281Z,100.00
2022-09-30T00:50:20.124Z,100.00
2022-09-30T00:53:29.731Z,100.00
2022-09-30T00:56:38.895Z,100.00
2022-09-30T00:59:47.187Z,100.00
2022-09-30T01:02:50.787Z,100.00
2022-09-30T01:05:54.787Z,100.00
2022-09-30T01:08:59.658Z,100.00
2022-09-30T01:12:05.622Z,100.00
2022-09-30T01:15:09.979Z,100.00
2022-09-30T01:18:22.720Z,100.00
2022-09-30T01:22:01.075Z,100.00
2022-09-30T01:25:25.401Z,100.00
2022-09-30T01:29:07.053Z,100.00
2022-09-30T01:32:25.106Z,100.00
2022-09-30T01:35:39.675Z,100.00
2022-09-30T01:38:49.617Z,100.00
2022-09-30T01:41:56.803Z,100.00
2022-09-30T01:45:07.878Z,100.00
2022-09-30T01:48:19.705Z,100.00
2022-09-30T01:51:30.425Z,100.00
2022-09-30T01:54:39.124Z,100.00
2022-09-30T01:57:51.517Z,100.00
2022-09-30T02:01:00.994Z,100.00
2022-09-30T02:04:09.984Z,100.00
2022-09-30T02:07:17.786Z,100.00
2022-09-30T02:10:26.628Z,100.00
2022-09-30T02:13:35.141Z,100.00
2022-09-30T02:16:41.003Z,100.00
2022-09-30T02:19:48.071Z,100.00
2022-09-30T02:22:55.140Z,100.00
2022-09-30T02:26:05.994Z,100.00
2022-09-30T02:29:14.001Z,100.00
2022-09-30T02:32:24.212Z,100.00
2022-09-30T02:35:33.036Z,100.00
2022-09-30T02:38:41.370Z,100.00
2022-09-30T02:41:50.000Z,100.00
2022-09-30T02:44:54.951Z,100.00
2022-09-30T02:48:07.172Z,100.00
2022-09-30T02:51:19.063Z,100.00
2022-09-30T02:54:32.534Z,100.00
2022-09-30T02:57:43.711Z,100.00
2022-09-30T03:00:46.696Z,100.00
2022-09-30T03:03:52.751Z,100.00
2022-09-30T03:06:57.375Z,100.00
2022-09-30T03:10:00.456Z,100.00
2022-09-30T03:13:19.179Z,100.00
2022-09-30T03:16:31.572Z,100.00
2022-09-30T03:19:49.060Z,100.00
2022-09-30T03:23:10.956Z,100.00
2022-09-30T03:26:31.391Z,100.00
2022-09-30T03:29:45.747Z,100.00
2022-09-30T03:33:03.497Z,100.00
2022-09-30T03:36:10.593Z,100.00
2022-09-30T03:39:24.093Z,100.00
2022-09-30T03:42:30.877Z,100.00
2022-09-30T03:45:40.677Z,100.00
2022-09-30T03:48:46.424Z,100.00
2022-09-30T03:51:51.042Z,100.00
2022-09-30T03:54:58.091Z,100.00
2022-09-30T03:58:00.961Z,100.00
2022-09-30T04:01:03.894Z,100.00
2022-09-30T04:04:07.038Z,100.00
2022-09-30T04:07:10.528Z,100.00
2022-09-30T04:10:14.769Z,100.00
2022-09-30T04:13:17.650Z,100.00
2022-09-30T04:16:20.545Z,100.00
2022-09-30T04:19:23.600Z,100.00
2022-09-30T04:22:26.937Z,100.00
2022-09-30T04:25:31.171Z,100.00
2022-09-30T04:28:36.112Z,100.00
2022-09-30T04:31:39.096Z,100.00
2022-09-30T04:34:42.033Z,100.00
2022-09-30T04:37:45.332Z,100.00
2022-09-30T04:40:57.474Z,100.00
2022-09-30T04:44:00.325Z,100.00
2022-09-30T04:47:03.384Z,100.00
2022-09-30T04:50:07.341Z,100.00
2022-09-30T04:53:10.636Z,100.00
2022-09-30T04:56:16.764Z,100.00
2022-09-30T04:59:19.603Z,100.00
2022-09-30T05:02:22.498Z,100.00
2022-09-30T05:05:25.544Z,100.00
2022-09-30T05:08:28.613Z,100.00
2022-09-30T05:11:32.824Z,100.00
2022-09-30T05:14:35.724Z,100.00
2022-09-30T05:17:38.600Z,100.00
2022-09-30T05:20:41.492Z,100.00
2022-09-30T05:23:44.593Z,100.00
2022-09-30T05:26:48.901Z,100.00
2022-09-30T05:29:51.778Z,100.00
2022-09-30T05:32:54.743Z,100.00
2022-09-30T05:36:00.886Z,100.00
2022-09-30T05:39:03.807Z,100.00
2022-09-30T05:42:12.001Z,100.00
2022-09-30T05:45:16.864Z,100.00
2022-09-30T05:48:20.232Z,100.00
2022-09-30T05:51:23.279Z,100.00
2022-09-30T05:54:26.202Z,100.00
2022-09-30T05:57:30.516Z,100.00
2022-09-30T06:00:33.339Z,100.00
2022-09-30T06:03:38.367Z,100.00
2022-09-30T06:06:41.523Z,100.00
2022-09-30T06:09:46.182Z,100.00
2022-09-30T06:12:50.635Z,100.00
2022-09-30T06:15:57.661Z,100.00
2022-09-30T06:19:00.550Z,100.00
2022-09-30T06:22:03.495Z,100.00
2022-09-30T06:25:07.507Z,100.00
2022-09-30T06:28:11.802Z,100.00
2022-09-30T06:31:14.755Z,100.00
2022-09-30T06:34:17.703Z,100.00
2022-09-30T06:37:20.556Z,100.00
2022-09-30T06:40:23.446Z,100.00
2022-09-30T06:43:27.647Z,100.00
2022-09-30T06:46:31.582Z,100.00
2022-09-30T06:49:46.058Z,100.00
2022-09-30T06:52:51.591Z,100.00
2022-09-30T06:55:57.539Z,100.00
2022-09-30T06:59:01.869Z,100.00
2022-09-30T07:02:04.812Z,100.00
2022-09-30T07:05:08.521Z,100.00
2022-09-30T07:08:11.321Z,100.00
2022-09-30T07:11:15.753Z,100.00
2022-09-30T07:14:20.237Z,100.00
2022-09-30T07:17:23.214Z,100.00
2022-09-30T07:20:26.111Z,100.00
2022-09-30T07:23:28.969Z,100.00
2022-09-30T07:26:32.018Z,100.00
2022-09-30T07:29:56.595Z,100.00
2022-09-30T07:32:59.081Z,100.00
2022-09-30T07:36:05.207Z,100.00
2022-09-30T07:39:10.968Z,100.00
2022-09-30T07:42:17.853Z,100.00
2022-09-30T07:45:25.386Z,100.00
2022-09-30T07:48:51.068Z,100.00
2022-09-30T07:51:55.675Z,100.00
2022-09-30T07:54:58.609Z,100.00
2022-09-30T07:58:01.587Z,100.00
2022-09-30T08:01:07.396Z,100.00
2022-09-30T08:04:12.705Z,100.00
2022-09-30T08:07:17.070Z,100.00
2022-09-30T08:13:22.729Z,100.00
2022-09-30T08:16:27.971Z,100.00
2022-09-30T08:19:33.705Z,100.00
2022-09-30T08:22:36.664Z,100.00
2022-09-30T08:25:39.647Z,100.00
2022-09-30T08:28:42.605Z,100.00
2022-09-30T08:31:46.965Z,100.00
2022-09-30T08:34:49.935Z,100.00
2022-09-30T08:37:52.788Z,100.00
2022-09-30T08:41:03.612Z,100.00
2022-09-30T08:44:16.241Z,100.00
2022-09-30T08:47:41.271Z,100.00
2022-09-30T08:50:54.906Z,100.00
2022-09-30T08:54:00.603Z,100.00
2022-09-30T08:57:05.397Z,100.00
2022-09-30T09:00:13.589Z,100.00
2022-09-30T09:03:20.482Z,100.00
2022-09-30T09:06:31.924Z,100.00
2022-09-30T09:09:49.388Z,100.00
2022-09-30T09:13:00.116Z,100.00
2022-09-30T09:16:11.683Z,100.00
2022-09-30T09:19:18.428Z,100.00
2022-09-30T09:22:24.827Z,100.00
2022-09-30T09:25:29.611Z,100.00
2022-09-30T09:28:37.395Z,100.00
2022-09-30T09:31:40.280Z,100.00
2022-09-30T09:34:45.164Z,100.00
2022-09-30T09:38:19.515Z,100.00
2022-09-30T09:41:33.714Z,100.00
2022-09-30T09:44:40.404Z,100.00
2022-09-30T09:47:45.717Z,100.00
2022-09-30T09:51:02.354Z,100.00
2022-09-30T09:54:10.587Z,100.00
2022-09-30T09:57:16.253Z,100.00
2022-09-30T10:00:55.732Z,100.00
2022-09-30T10:04:11.170Z,100.00
2022-09-30T10:07:16.588Z,100.00
2022-09-30T10:10:23.877Z,100.00
2022-09-30T10:13:28.983Z,100.00
2022-09-30T10:16:35.530Z,100.00
2022-09-30T10:19:38.760Z,100.00
2022-09-30T10:22:43.552Z,100.00
2022-09-30T10:25:57.702Z,100.00
2022-09-30T10:29:04.345Z,100.00
2022-09-30T10:32:09.900Z,100.00
2022-09-30T10:35:23.934Z,100.00
2022-09-30T10:38:29.926Z,100.00
2022-09-30T10:41:35.137Z,100.00
2022-09-30T10:44:44.060Z,100.00
2022-09-30T10:47:50.790Z,100.00
2022-09-30T10:50:54.824Z,100.00
2022-09-30T10:53:59.061Z,100.00
2022-09-30T10:57:03.943Z,100.00
2022-09-30T11:00:11.514Z,100.00
2022-09-30T11:03:18.380Z,100.00
2022-09-30T11:06:24.939Z,100.00
2022-09-30T11:09:36.619Z,100.00
2022-09-30T11:12:47.172Z,100.00
2022-09-30T11:16:01.791Z,100.00
2022-09-30T11:19:12.550Z,100.00
2022-09-30T11:22:31.035Z,99.76
2022-09-30T11:25:44.132Z,100.00
2022-09-30T11:29:04.603Z,100.00
2022-09-30T11:32:19.553Z,100.00
2022-09-30T11:35:42.184Z,100.00
2022-09-30T11:39:05.130Z,100.00
2022-09-30T11:42:15.320Z,100.00
2022-09-30T11:45:31.754Z,100.00
2022-09-30T11:48:50.288Z,100.00
2022-09-30T11:52:03.319Z,100.00
2022-09-30T11:55:24.024Z,100.00
2022-09-30T11:58:42.757Z,100.00
2022-09-30T12:01:49.393Z,100.00
2022-09-30T12:04:57.959Z,100.00
2022-09-30T12:08:06.013Z,100.00
2022-09-30T12:11:12.617Z,97.24
2022-09-30T12:14:24.377Z,100.00
2022-09-30T12:17:32.576Z,100.00
2022-09-30T12:20:39.559Z,100.00
2022-09-30T12:23:47.499Z,100.00
2022-09-30T12:26:50.773Z,100.00
2022-09-30T12:30:18.711Z,100.00
2022-09-30T12:33:41.471Z,100.00
2022-09-30T12:36:57.594Z,100.00
2022-09-30T12:40:33.677Z,100.00
2022-09-30T12:44:07.955Z,98.83
2022-09-30T12:47:23.311Z,92.52
2022-09-30T12:50:29.938Z,93.11
2022-09-30T12:53:36.276Z,88.73
2022-09-30T12:56:44.639Z,90.03
2022-09-30T12:59:53.428Z,95.08
2022-09-30T13:03:00.444Z,100.00
2022-09-30T13:06:06.560Z,96.38
2022-09-30T13:09:22.317Z,93.81
2022-09-30T13:12:40.419Z,95.48
2022-09-30T13:15:44.657Z,99.94
2022-09-30T13:19:20.518Z,97.21
2022-09-30T13:22:57.987Z,91.36
2022-09-30T13:26:02.047Z,100.00
2022-09-30T13:29:38.207Z,100.00
2022-09-30T13:32:42.646Z,98.81
2022-09-30T13:35:53.544Z,94.55
2022-09-30T13:39:26.614Z,95.60
2022-09-30T13:42:32.801Z,100.00
2022-09-30T13:45:39.664Z,100.00
2022-09-30T13:48:49.795Z,98.38
2022-09-30T13:51:55.179Z,94.50
2022-09-30T13:55:04.030Z,94.98
2022-09-30T13:58:28.260Z,100.00
2022-09-30T14:01:53.649Z,99.48
2022-09-30T14:05:36.195Z,95.55
2022-09-30T14:09:12.481Z,93.60
2022-09-30T14:12:41.126Z,93.38
2022-09-30T14:16:14.065Z,97.75
2022-09-30T14:19:34.897Z,100.00
2022-09-30T14:22:38.417Z,99.28
2022-09-30T14:25:50.646Z,100.00
2022-09-30T14:29:00.946Z,99.04
2022-09-30T14:32:12.492Z,99.82
2022-09-30T14:35:19.576Z,99.44
2022-09-30T14:38:25.215Z,93.73
2022-09-30T14:41:29.723Z,93.58
2022-09-30T14:44:36.310Z,93.54
2022-09-30T14:47:45.669Z,95.30
2022-09-30T14:50:52.039Z,95.75
2022-09-30T14:53:56.768Z,92.25
2022-09-30T14:57:02.297Z,95.67
2022-09-30T15:00:32.029Z,92.83
2022-09-30T15:03:38.085Z,99.72
2022-09-30T15:06:46.635Z,99.17
2022-09-30T15:09:50.915Z,96.41
2022-09-30T15:12:56.265Z,96.39
2022-09-30T15:16:00.736Z,99.37
2022-09-30T15:19:03.789Z,94.50
2022-09-30T15:22:09.527Z,97.61
2022-09-30T15:25:14.058Z,96.98
2022-09-30T15:28:17.185Z,100.00
2022-09-30T15:31:26.173Z,100.00
2022-09-30T15:34:32.502Z,100.00
2022-09-30T15:37:35.737Z,100.00
2022-09-30T15:40:50.613Z,100.00
2022-09-30T15:43:54.628Z,100.00
2022-09-30T15:47:07.605Z,100.00
2022-09-30T15:50:37.344Z,100.00
2022-09-30T15:53:48.863Z,100.00
2022-09-30T15:56:52.176Z,100.00
2022-09-30T16:00:01.094Z,100.00
2022-09-30T16:03:26.447Z,100.00
2022-09-30T16:06:35.039Z,100.00
2022-09-30T16:09:40.955Z,100.00
2022-09-30T16:12:49.500Z,100.00
2022-09-30T16:15:54.217Z,100.00
2022-09-30T16:18:59.947Z,100.00
2022-09-30T16:22:03.082Z,100.00
2022-09-30T16:25:26.551Z,100.00
2022-09-30T16:28:29.565Z,100.00
2022-09-30T16:31:34.297Z,100.00
2022-09-30T16:34:39.691Z,100.00
2022-09-30T16:37:44.335Z,100.00
2022-09-30T16:40:47.677Z,100.00
2022-09-30T16:43:51.373Z,100.00
2022-09-30T16:46:54.501Z,100.00
2022-09-30T16:49:58.940Z,100.00
2022-09-30T16:53:01.865Z,100.00
2022-09-30T16:56:04.987Z,100.00
2022-09-30T16:59:14.554Z,100.00
2022-09-30T17:02:17.533Z,100.00
2022-09-30T17:05:24.173Z,100.00
2022-09-30T17:08:27.290Z,100.00
2022-09-30T17:11:33.198Z,100.00
2022-09-30T17:14:36.193Z,100.00
2022-09-30T17:17:39.261Z,100.00
2022-09-30T17:20:46.267Z,100.00
2022-09-30T17:23:49.528Z,100.00
2022-09-30T17:26:54.266Z,100.00
2022-09-30T17:29:57.237Z,100.00
2022-09-30T17:33:00.251Z,100.00
2022-09-30T17:36:06.618Z,100.00
2022-09-30T17:39:11.424Z,100.00
2022-09-30T17:42:33.160Z,100.00
2022-09-30T17:45:36.404Z,100.00
2022-09-30T17:48:39.653Z,100.00
2022-09-30T17:51:44.091Z,100.00
2022-09-30T17:54:52.075Z,100.00
2022-09-30T17:57:55.897Z,100.00
2022-09-30T18:00:59.461Z,100.00
2022-09-30T18:04:02.815Z,100.00
2022-09-30T18:07:08.307Z,100.00
2022-09-30T18:10:11.501Z,100.00
2022-09-30T18:13:14.370Z,100.00
2022-09-30T18:16:17.467Z,100.00
2022-09-30T18:19:20.821Z,100.00
2022-09-30T18:22:25.067Z,100.00
2022-09-30T18:25:27.897Z,100.00
2022-09-30T18:28:30.776Z,100.00
2022-09-30T18:31:37.469Z,100.00
2022-09-30T18:34:41.051Z,100.00
2022-09-30T18:37:47.386Z,100.00
2022-09-30T18:40:50.402Z,100.00
2022-09-30T18:43:56.319Z,100.00
2022-09-30T18:46:59.476Z,100.00
2022-09-30T18:50:02.371Z,100.00
2022-09-30T18:53:09.829Z,100.00
2022-09-30T18:56:13.299Z,100.00
2022-09-30T18:59:19.248Z,100.00
2022-09-30T19:02:25.001Z,100.00
2022-09-30T19:05:28.415Z,100.00
2022-09-30T19:08:34.272Z,100.00
2022-09-30T19:11:42.782Z,100.00
2022-09-30T19:14:51.796Z,100.00
2022-09-30T19:17:55.407Z,100.00
2022-09-30T19:20:58.639Z,100.00
2022-09-30T19:24:04.520Z,100.00
2022-09-30T19:27:09.277Z,100.00
2022-09-30T19:30:14.942Z,100.00
2022-09-30T19:33:18.233Z,100.00
2022-09-30T19:36:21.245Z,100.00
2022-09-30T19:39:31.315Z,100.00
2022-09-30T19:42:42.790Z,100.00
2022-09-30T19:45:55.264Z,100.00
2022-09-30T19:48:58.334Z,100.00
2022-09-30T19:52:13.490Z,100.00
2022-09-30T19:55:20.958Z,100.00
2022-09-30T19:58:23.986Z,100.00
2022-09-30T20:01:29.566Z,100.00
2022-09-30T20:04:34.245Z,100.00
2022-09-30T20:07:37.460Z,100.00
2022-09-30T20:10:41.810Z,100.00
2022-09-30T20:13:45.595Z,100.00
2022-09-30T20:16:48.385Z,100.00
2022-09-30T20:20:05.262Z,100.00
2022-09-30T20:23:08.377Z,100.00
2022-09-30T20:26:15.672Z,100.00
2022-09-30T20:29:20.770Z,100.00
2022-09-30T20:32:23.831Z,100.00
2022-09-30T20:35:26.898Z,100.00
2022-09-30T20:38:29.761Z,100.00
2022-09-30T20:41:36.778Z,100.00
2022-09-30T20:44:39.892Z,100.00
2022-09-30T20:47:45.348Z,100.00
2022-09-30T20:50:49.334Z,100.00
2022-09-30T20:53:54.342Z,100.00
2022-09-30T20:57:07.535Z,100.00
2022-09-30T21:00:12.205Z,100.00
2022-09-30T21:03:15.376Z,100.00
2022-09-30T21:06:20.549Z,100.00
2022-09-30T21:09:23.537Z,100.00
2022-09-30T21:12:31.049Z,100.00
2022-09-30T21:15:34.023Z,100.00
2022-09-30T21:18:36.978Z,100.00
2022-09-30T21:21:40.070Z,100.00
2022-09-30T21:24:42.907Z,100.00
2022-09-30T21:27:48.748Z,100.00
2022-09-30T21:30:52.048Z,100.00
2022-09-30T21:33:58.322Z,100.00
2022-09-30T21:37:01.942Z,100.00
2022-09-30T21:40:05.163Z,100.00
2022-09-30T21:43:09.557Z,100.00
2022-09-30T21:46:14.774Z,100.00
2022-09-30T21:49:20.445Z,100.00
2022-09-30T21:52:23.303Z,100.00
2022-09-30T21:55:26.145Z,100.00
2022-09-30T21:58:32.631Z,100.00
2022-09-30T22:01:36.973Z,100.00
2022-09-30T22:04:40.961Z,100.00
2022-09-30T22:07:43.870Z,100.00
2022-09-30T22:10:46.949Z,100.00
2022-09-30T22:13:53.102Z,100.00
2022-09-30T22:16:56.124Z,100.00
2022-09-30T22:19:59.139Z,100.00
2022-09-30T22:23:02.001Z,100.00
2022-09-30T22:26:09.202Z,100.00
2022-09-30T22:29:13.469Z,100.00
2022-09-30T22:32:16.411Z,100.00
2022-09-30T22:35:36.536Z,100.00
2022-09-30T22:38:39.355Z,100.00
2022-09-30T22:41:42.730Z,100.00
2022-09-30T22:44:47.505Z,100.00
2022-09-30T22:47:50.483Z,100.00
2022-09-30T22:50:53.345Z,100.00
2022-09-30T22:53:56.892Z,100.00
2022-09-30T22:57:00.135Z,100.00
2022-09-30T23:00:06.330Z,100.00
2022-09-30T23:03:09.335Z,100.00
2022-09-30T23:06:12.597Z,100.00
2022-09-30T23:09:15.809Z,100.00
2022-09-30T23:12:18.691Z,100.00
2022-09-30T23:15:22.928Z,100.00
2022-09-30T23:18:25.772Z,100.00
2022-09-30T23:21:28.788Z,100.00
2022-09-30T23:24:31.797Z,100.00
2022-09-30T23:27:34.690Z,100.00
2022-09-30T23:30:38.893Z,100.00
2022-09-30T23:33:48.057Z,100.00
2022-09-30T23:36:50.922Z,100.00
2022-09-30T23:39:53.859Z,100.00
2022-09-30T23:42:57.401Z,100.00
2022-09-30T23:46:02.465Z,100.00
2022-09-30T23:49:05.564Z,100.00
2022-09-30T23:52:12.912Z,100.00
2022-09-30T23:55:16.899Z,100.00
2022-09-30T23:58:19.796Z,100.00
